Time;durP1;ratioP1;P1;durP2;ratioP2;P2;SDS_P1;SDS_P2;PMS_P1;PMS_P2;Temp;Humidity;BMP_temperature;BMP_pressure;BME280_temperature;BME280_humidity;BME280_pressure;Samples;Min_cycle;Max_cycle;Signal;HPM_P1;HPM_P2
2021/08/17 00:01:53;;;;;;;7.70;2.53;;;;;;;;;;6175998;23;20155;-91
2021/08/17 00:04:58;;;;;;;6.40;2.35;;;;;;;;;;6176680;23;20171;-91
2021/08/17 00:08:04;;;;;;;8.63;2.47;;;;;;;;;;6177306;23;20175;-89
2021/08/17 00:11:10;;;;;;;8.23;2.45;;;;;;;;;;6176742;23;20171;-90
2021/08/17 00:14:14;;;;;;;15.52;3.05;;;;;;;;;;6177816;23;20167;-90
2021/08/17 00:17:19;;;;;;;5.38;1.95;;;;;;;;;;6175046;23;20659;-90
2021/08/17 00:20:24;;;;;;;4.63;1.92;;;;;;;;;;6176879;23;20156;-89
2021/08/17 00:23:31;;;;;;;5.15;1.98;;;;;;;;;;6182748;23;20184;-88
2021/08/17 00:26:38;;;;;;;3.28;1.98;;;;;;;;;;6176151;23;20168;-90
2021/08/17 00:29:43;;;;;;;4.15;1.85;;;;;;;;;;6178072;23;20553;-90
2021/08/17 00:32:48;;;;;;;6.50;1.67;;;;;;;;;;6177575;23;20270;-92
2021/08/17 00:35:53;;;;;;;3.38;1.98;;;;;;;;;;6176553;23;20172;-90
2021/08/17 00:38:58;;;;;;;2.90;1.75;;;;;;;;;;6176657;23;20152;-91
2021/08/17 00:42:05;;;;;;;3.40;2.03;;;;;;;;;;6177431;23;20171;-90
2021/08/17 00:45:12;;;;;;;3.00;1.80;;;;;;;;;;6178364;23;20184;-90
2021/08/17 00:48:17;;;;;;;2.88;1.67;;;;;;;;;;6176989;23;20175;-90
2021/08/17 00:51:22;;;;;;;3.60;1.90;;;;;;;;;;6176823;23;20168;-90
2021/08/17 00:54:28;;;;;;;5.45;1.83;;;;;;;;;;6178078;23;20175;-91
2021/08/17 00:57:34;;;;;;;3.90;1.60;;;;;;;;;;6178003;23;20191;-89
2021/08/17 01:00:39;;;;;;;5.15;1.67;;;;;;;;;;6178445;23;20720;-89
2021/08/17 01:03:44;;;;;;;2.88;1.30;;;;;;;;;;6179017;23;20622;-90
2021/08/17 01:06:49;;;;;;;3.60;1.10;;;;;;;;;;6178317;23;20156;-89
2021/08/17 01:09:54;;;;;;;4.25;1.20;;;;;;;;;;6178753;23;20167;-89
2021/08/17 01:13:01;;;;;;;2.80;1.10;;;;;;;;;;6179708;23;20229;-89
2021/08/17 01:16:06;;;;;;;3.00;1.00;;;;;;;;;;6181191;23;20168;-90
2021/08/17 01:19:11;;;;;;;1.85;1.05;;;;;;;;;;6180127;23;20214;-89
2021/08/17 01:22:17;;;;;;;2.58;1.42;;;;;;;;;;6181943;23;20171;-89
2021/08/17 01:25:24;;;;;;;2.67;1.00;;;;;;;;;;6180575;23;20248;-88
2021/08/17 01:28:30;;;;;;;2.58;1.05;;;;;;;;;;6179543;23;20291;-90
2021/08/17 01:31:35;;;;;;;2.63;0.90;;;;;;;;;;6180590;23;20167;-90
2021/08/17 01:34:40;;;;;;;2.00;1.08;;;;;;;;;;6180995;23;20183;-89
2021/08/17 01:37:45;;;;;;;1.20;0.90;;;;;;;;;;6181669;23;20262;-91
2021/08/17 01:40:50;;;;;;;12.93;2.00;;;;;;;;;;6180888;23;20238;-89
2021/08/17 01:43:57;;;;;;;1.13;1.00;;;;;;;;;;6181127;23;20623;-90
2021/08/17 01:47:01;;;;;;;1.17;0.98;;;;;;;;;;6182052;23;20175;-90
2021/08/17 01:50:07;;;;;;;1.20;0.95;;;;;;;;;;6180718;23;20180;-90
2021/08/17 01:53:12;;;;;;;1.77;0.90;;;;;;;;;;6180292;23;20179;-88
2021/08/17 01:56:17;;;;;;;1.60;1.10;;;;;;;;;;6180277;23;20221;-88
2021/08/17 01:59:24;;;;;;;4.00;1.10;;;;;;;;;;6181132;23;20213;-89
2021/08/17 02:02:29;;;;;;;3.55;1.05;;;;;;;;;;6181119;23;20635;-91
2021/08/17 02:05:34;;;;;;;3.38;1.10;;;;;;;;;;6181017;23;20187;-89
2021/08/17 02:08:39;;;;;;;1.48;0.90;;;;;;;;;;6179474;23;20168;-89
2021/08/17 02:11:44;;;;;;;2.17;1.00;;;;;;;;;;6180647;23;20167;-92
2021/08/17 02:14:50;;;;;;;1.58;0.90;;;;;;;;;;6179951;23;20304;-89
2021/08/17 02:17:55;;;;;;;3.63;1.02;;;;;;;;;;6180850;23;20200;-90
2021/08/17 02:21:00;;;;;;;1.52;1.02;;;;;;;;;;6180282;23;20176;-89
2021/08/17 02:24:06;;;;;;;2.67;0.90;;;;;;;;;;6180351;23;20167;-88
2021/08/17 02:27:12;;;;;;;1.73;1.10;;;;;;;;;;6181448;23;20219;-89
2021/08/17 02:30:18;;;;;;;1.50;0.90;;;;;;;;;;6181384;23;20219;-90
2021/08/17 02:33:23;;;;;;;2.40;0.95;;;;;;;;;;6180242;23;20613;-91
2021/08/17 02:36:27;;;;;;;1.35;0.90;;;;;;;;;;6182754;23;20144;-91
2021/08/17 02:39:32;;;;;;;1.25;0.93;;;;;;;;;;6178727;23;20291;-91
2021/08/17 02:42:37;;;;;;;1.23;1.00;;;;;;;;;;6180260;23;20175;-90
2021/08/17 02:45:43;;;;;;;4.05;1.85;;;;;;;;;;6178971;23;20232;-91
2021/08/17 02:48:49;;;;;;;2.40;0.98;;;;;;;;;;6180250;23;20172;-90
2021/08/17 02:51:54;;;;;;;2.00;1.27;;;;;;;;;;6181904;23;20478;-91
2021/08/17 02:54:59;;;;;;;3.53;1.10;;;;;;;;;;6179403;23;20176;-88
2021/08/17 02:58:08;;;;;;;4.05;1.40;;;;;;;;;;6180110;23;20497;-90
2021/08/17 03:01:14;;;;;;;3.03;1.40;;;;;;;;;;6180568;23;20220;-90
2021/08/17 03:04:19;;;;;;;1.30;1.00;;;;;;;;;;6182041;23;20619;-91
2021/08/17 03:07:27;;;;;;;1.70;1.10;;;;;;;;;;6180877;23;20167;-90
2021/08/17 03:10:32;;;;;;;3.13;1.27;;;;;;;;;;6180455;23;20225;-91
2021/08/17 03:13:37;;;;;;;2.15;1.20;;;;;;;;;;6182845;23;20175;-90
2021/08/17 03:16:44;;;;;;;1.85;1.25;;;;;;;;;;6181973;23;20168;-92
2021/08/17 03:19:49;;;;;;;2.72;1.25;;;;;;;;;;6182249;23;20167;-90
2021/08/17 03:22:54;;;;;;;1.92;1.00;;;;;;;;;;6183042;23;20171;-90
2021/08/17 03:25:59;;;;;;;2.00;1.30;;;;;;;;;;6181320;23;20188;-91
2021/08/17 03:29:04;;;;;;;2.08;1.30;;;;;;;;;;6180550;23;20280;-91
2021/08/17 03:32:10;;;;;;;2.75;1.40;;;;;;;;;;6183730;23;20170;-91
2021/08/17 03:35:16;;;;;;;2.28;1.60;;;;;;;;;;6181106;23;20168;-92
2021/08/17 03:38:21;;;;;;;3.97;1.50;;;;;;;;;;6182113;23;20211;-92
2021/08/17 03:41:26;;;;;;;3.25;1.40;;;;;;;;;;6181744;23;20176;-91
2021/08/17 03:44:31;;;;;;;2.63;1.48;;;;;;;;;;6182044;23;20171;-91
2021/08/17 03:47:38;;;;;;;2.53;1.60;;;;;;;;;;6182186;23;20311;-92
2021/08/17 03:50:43;;;;;;;3.58;1.70;;;;;;;;;;6180556;23;20172;-92
2021/08/17 03:53:48;;;;;;;3.53;1.50;;;;;;;;;;6181794;23;20237;-90
2021/08/17 03:56:53;;;;;;;4.00;1.88;;;;;;;;;;6180221;23;20188;-89
2021/08/17 03:59:58;;;;;;;3.88;1.52;;;;;;;;;;6182660;23;20171;-90
2021/08/17 04:03:07;;;;;;;3.97;1.92;;;;;;;;;;6182228;23;20188;-91
2021/08/17 04:06:13;;;;;;;4.90;2.17;;;;;;;;;;6181337;23;20171;-91
2021/08/17 04:09:18;;;;;;;4.75;1.95;;;;;;;;;;6180719;23;20244;-91
2021/08/17 04:12:24;;;;;;;5.60;1.98;;;;;;;;;;6179518;23;20179;-91
2021/08/17 04:15:34;;;;;;;5.00;1.90;;;;;;;;;;6181587;23;20163;-90
2021/08/17 04:18:40;;;;;;;2.92;1.70;;;;;;;;;;6179715;23;20249;-90
2021/08/17 04:21:45;;;;;;;3.85;2.20;;;;;;;;;;6179203;23;20171;-91
2021/08/17 04:24:50;;;;;;;5.53;2.40;;;;;;;;;;6177391;23;20299;-93
2021/08/17 04:27:55;;;;;;;8.20;2.75;;;;;;;;;;6178971;23;20176;-91
2021/08/17 04:31:00;;;;;;;9.25;2.80;;;;;;;;;;6179154;23;20175;-89
2021/08/17 04:34:07;;;;;;;6.22;2.63;;;;;;;;;;6180531;23;20299;-93
2021/08/17 04:37:12;;;;;;;6.72;3.10;;;;;;;;;;6177952;23;20202;-90
2021/08/17 04:40:17;;;;;;;8.13;2.90;;;;;;;;;;6179535;23;20171;-91
2021/08/17 04:43:22;;;;;;;6.40;3.25;;;;;;;;;;6179480;23;20549;-89
2021/08/17 04:46:27;;;;;;;9.57;3.38;;;;;;;;;;6180031;23;20175;-90
2021/08/17 04:49:34;;;;;;;9.20;3.50;;;;;;;;;;6182472;23;20172;-93
2021/08/17 04:52:40;;;;;;;7.30;3.40;;;;;;;;;;6181280;23;20180;-90
2021/08/17 04:55:45;;;;;;;8.40;3.30;;;;;;;;;;6181523;23;20483;-91
2021/08/17 04:58:51;;;;;;;6.03;2.72;;;;;;;;;;6181192;23;20243;-92
2021/08/17 05:01:56;;;;;;;6.70;3.03;;;;;;;;;;6180551;23;20167;-91
2021/08/17 05:05:03;;;;;;;7.32;3.28;;;;;;;;;;6180162;23;20249;-91
2021/08/17 05:08:10;;;;;;;9.68;3.90;;;;;;;;;;6178894;23;20171;-92
2021/08/17 05:11:16;;;;;;;8.77;3.90;;;;;;;;;;6178796;23;20179;-91
2021/08/17 05:14:21;;;;;;;14.55;3.92;;;;;;;;;;6180650;23;20217;-91
2021/08/17 05:17:26;;;;;;;10.25;4.10;;;;;;;;;;6180931;23;20268;-92
2021/08/17 05:20:34;;;;;;;9.27;3.72;;;;;;;;;;6180575;23;20616;-92
2021/08/17 05:23:39;;;;;;;13.85;3.88;;;;;;;;;;6183357;23;20195;-91
2021/08/17 05:26:44;;;;;;;8.57;3.70;;;;;;;;;;6181183;23;20167;-90
2021/08/17 05:29:51;;;;;;;7.95;3.90;;;;;;;;;;6180629;23;20171;-91
2021/08/17 05:32:57;;;;;;;9.68;4.07;;;;;;;;;;6181889;23;20175;-92
2021/08/17 05:36:03;;;;;;;10.23;3.75;;;;;;;;;;6180270;23;20192;-90
2021/08/17 05:39:09;;;;;;;9.57;4.13;;;;;;;;;;6180086;23;20187;-92
2021/08/17 05:42:14;;;;;;;12.63;4.38;;;;;;;;;;6180969;23;20179;-91
2021/08/17 05:45:19;;;;;;;10.18;4.28;;;;;;;;;;6179653;23;20172;-91
2021/08/17 05:48:24;;;;;;;9.65;3.33;;;;;;;;;;6182135;23;20233;-91
2021/08/17 05:51:30;;;;;;;12.02;4.05;;;;;;;;;;6181388;23;20167;-90
2021/08/17 05:54:36;;;;;;;9.75;4.05;;;;;;;;;;6181535;23;20175;-89
2021/08/17 05:57:42;;;;;;;8.15;3.75;;;;;;;;;;6184868;23;20230;-90
2021/08/17 06:00:47;;;;;;;10.05;3.80;;;;;;;;;;6185252;23;20180;-90
2021/08/17 06:03:53;;;;;;;12.55;3.42;;;;;;;;;;6185509;23;20243;-90
2021/08/17 06:07:00;;;;;;;9.88;3.25;;;;;;;;;;6181930;23;20168;-91
2021/08/17 06:10:05;;;;;;;13.35;3.95;;;;;;;;;;6183337;23;20172;-92
2021/08/17 06:13:10;;;;;;;12.10;4.28;;;;;;;;;;6185177;23;20175;-91
2021/08/17 06:16:17;;;;;;;10.60;4.07;;;;;;;;;;6185844;23;20168;-91
2021/08/17 06:19:23;;;;;;;13.85;4.38;;;;;;;;;;6184085;23;20191;-90
2021/08/17 06:22:30;;;;;;;9.65;4.18;;;;;;;;;;6185025;23;20164;-91
2021/08/17 06:25:35;;;;;;;9.43;3.70;;;;;;;;;;6184131;23;20171;-90
2021/08/17 06:28:41;;;;;;;9.30;4.05;;;;;;;;;;6166237;23;20184;-91
2021/08/17 06:31:49;;;;;;;10.65;3.88;;;;;;;;;;6183045;23;20175;-90
2021/08/17 06:34:54;;;;;;;13.10;3.70;;;;;;;;;;6182488;23;20164;-92
2021/08/17 18:02:45;;;;;;;5.13;2.20;;;;;;;;;;6136550;23;20197;-90
2021/08/17 18:05:50;;;;;;;4.65;2.55;;;;;;;;;;6138497;23;20177;-91
2021/08/17 18:08:58;;;;;;;6.40;2.53;;;;;;;;;;6121659;23;20173;-88
2021/08/17 18:12:04;;;;;;;6.82;3.03;;;;;;;;;;6136878;23;20252;-89
2021/08/17 18:15:11;;;;;;;7.60;2.80;;;;;;;;;;6117807;23;20168;-89
2021/08/17 18:18:17;;;;;;;7.60;2.75;;;;;;;;;;6136372;23;20156;-89
2021/08/17 18:21:22;;;;;;;7.03;3.10;;;;;;;;;;6136892;23;20497;-89
2021/08/17 18:24:27;;;;;;;8.35;2.83;;;;;;;;;;6135555;23;20169;-89
2021/08/17 18:27:33;;;;;;;5.82;2.42;;;;;;;;;;6135681;23;20169;-89
2021/08/17 18:30:40;;;;;;;5.85;2.92;;;;;;;;;;6137052;23;20254;-89
2021/08/17 18:33:47;;;;;;;6.20;3.17;;;;;;;;;;6137791;23;20177;-89
2021/08/17 18:36:54;;;;;;;6.80;2.83;;;;;;;;;;6137754;23;20173;-88
2021/08/17 18:40:00;;;;;;;5.55;2.30;;;;;;;;;;6119070;23;20193;-90
2021/08/17 18:43:05;;;;;;;11.80;2.75;;;;;;;;;;6123806;23;20563;-90
2021/08/17 18:46:12;;;;;;;7.35;3.15;;;;;;;;;;6118871;23;20174;-89
2021/08/17 18:49:19;;;;;;;5.85;3.13;;;;;;;;;;6139553;23;20169;-90
2021/08/17 18:52:35;;;;;;;5.18;3.03;;;;;;;;;;6139219;23;20169;-89
2021/08/17 18:55:41;;;;;;;5.15;2.55;;;;;;;;;;6119010;23;20213;-89
2021/08/17 18:58:47;;;;;;;5.45;2.78;;;;;;;;;;6119288;23;20262;-88
2021/08/17 19:01:52;;;;;;;5.38;2.83;;;;;;;;;;6123645;23;20178;-89
2021/08/17 19:04:59;;;;;;;7.25;3.47;;;;;;;;;;6137185;23;20164;-88
2021/08/17 19:08:04;;;;;;;6.22;2.95;;;;;;;;;;6139440;23;20173;-89
2021/08/17 19:11:09;;;;;;;7.60;3.00;;;;;;;;;;6139055;23;20218;-89
2021/08/17 19:14:15;;;;;;;6.85;3.08;;;;;;;;;;6125467;23;20248;-91
2021/08/17 19:17:21;;;;;;;7.60;3.05;;;;;;;;;;6140239;23;20184;-89
2021/08/17 19:20:29;;;;;;;6.53;3.60;;;;;;;;;;6141380;23;20200;-88
2021/08/17 19:23:35;;;;;;;7.63;3.97;;;;;;;;;;6142791;23;20334;-89
2021/08/17 19:26:40;;;;;;;6.70;3.80;;;;;;;;;;6125774;23;20262;-89
2021/08/17 19:29:47;;;;;;;8.07;3.65;;;;;;;;;;6141088;23;20172;-90
2021/08/17 19:32:52;;;;;;;6.57;2.97;;;;;;;;;;6141738;23;20161;-89
2021/08/17 19:35:59;;;;;;;8.70;3.70;;;;;;;;;;6140623;23;20186;-89
2021/08/17 19:39:06;;;;;;;9.00;3.28;;;;;;;;;;6139759;23;20280;-90
2021/08/17 19:42:13;;;;;;;5.55;2.88;;;;;;;;;;6135513;23;20165;-88
2021/08/17 19:45:17;;;;;;;6.20;2.92;;;;;;;;;;6138800;23;20243;-89
2021/08/17 19:48:23;;;;;;;6.90;3.08;;;;;;;;;;6136082;23;20173;-89
2021/08/17 19:51:30;;;;;;;5.53;3.08;;;;;;;;;;6136907;23;20633;-89
2021/08/17 19:54:37;;;;;;;6.20;3.40;;;;;;;;;;6135283;23;20180;-90
2021/08/17 19:57:42;;;;;;;5.68;3.20;;;;;;;;;;6136252;23;20177;-89
2021/08/17 20:00:48;;;;;;;7.10;3.10;;;;;;;;;;6136052;23;20212;-88
2021/08/17 20:03:55;;;;;;;9.55;3.05;;;;;;;;;;6118619;23;20177;-90
2021/08/17 20:07:10;;;;;;;6.63;3.13;;;;;;;;;;6137353;23;20225;-91
2021/08/17 20:10:16;;;;;;;11.10;3.15;;;;;;;;;;6120530;23;20185;-88
2021/08/17 20:13:21;;;;;;;12.77;3.50;;;;;;;;;;6120470;23;20294;-88
2021/08/17 20:16:26;;;;;;;7.32;3.85;;;;;;;;;;6120203;23;20173;-90
2021/08/17 20:19:32;;;;;;;7.07;3.05;;;;;;;;;;6122371;23;20193;-88
2021/08/17 20:22:42;;;;;;;9.93;3.38;;;;;;;;;;6122012;23;20230;-89
2021/08/17 20:25:48;;;;;;;8.40;3.55;;;;;;;;;;6123707;23;20220;-89
2021/08/17 20:28:53;;;;;;;5.63;3.10;;;;;;;;;;6122369;23;20498;-91
2021/08/17 20:31:58;;;;;;;5.78;2.70;;;;;;;;;;6121745;23;20169;-91
2021/08/17 20:35:05;;;;;;;6.63;3.47;;;;;;;;;;6125264;23;20173;-90
2021/08/17 20:38:13;;;;;;;6.22;3.17;;;;;;;;;;6125468;23;20173;-87
2021/08/17 20:41:19;;;;;;;8.93;3.70;;;;;;;;;;6121189;23;20165;-90
2021/08/17 20:44:24;;;;;;;8.05;3.90;;;;;;;;;;6124648;23;20189;-88
2021/08/17 20:50:49;;;;;;;8.85;3.33;;;;;;;;;;6127812;23;20181;-90
2021/08/17 20:53:58;;;;;;;10.13;3.28;;;;;;;;;;6126751;23;20173;-89
2021/08/17 20:57:04;;;;;;;8.70;3.92;;;;;;;;;;6128336;23;20169;-92
2021/08/17 21:00:12;;;;;;;10.48;3.75;;;;;;;;;;6127554;23;20216;-89
2021/08/17 21:03:19;;;;;;;6.07;3.50;;;;;;;;;;6122752;23;20298;-90
2021/08/17 21:06:25;;;;;;;9.07;3.20;;;;;;;;;;6123645;23;20161;-91
2021/08/17 21:09:32;;;;;;;9.95;3.40;;;;;;;;;;6123883;23;20184;-91
2021/08/17 21:12:37;;;;;;;6.60;3.92;;;;;;;;;;6121424;23;20173;-91
2021/08/17 21:15:43;;;;;;;6.90;3.28;;;;;;;;;;6140647;23;20173;-90
2021/08/17 21:18:48;;;;;;;5.68;3.28;;;;;;;;;;6122557;23;20181;-88
2021/08/17 21:21:54;;;;;;;15.45;4.05;;;;;;;;;;6123918;23;20168;-89
2021/08/17 21:25:01;;;;;;;16.73;3.72;;;;;;;;;;6123104;23;20177;-90
2021/08/17 21:28:06;;;;;;;7.70;3.92;;;;;;;;;;6123725;23;20172;-91
2021/08/17 21:31:12;;;;;;;8.07;3.53;;;;;;;;;;6122739;23;20232;-89
2021/08/17 21:34:17;;;;;;;7.78;3.55;;;;;;;;;;6120476;23;20177;-89
2021/08/17 21:37:22;;;;;;;7.32;3.47;;;;;;;;;;6124144;23;20180;-91
2021/08/17 21:40:29;;;;;;;6.85;3.17;;;;;;;;;;6140567;23;20527;-89
2021/08/17 21:43:35;;;;;;;10.20;3.03;;;;;;;;;;6122232;23;20225;-89
2021/08/17 21:46:40;;;;;;;14.20;3.50;;;;;;;;;;6121113;23;20176;-90
2021/08/17 21:49:45;;;;;;;10.82;3.85;;;;;;;;;;6121403;23;20169;-90
2021/08/17 21:52:50;;;;;;;7.78;3.78;;;;;;;;;;6120670;23;20621;-91
2021/08/17 21:55:57;;;;;;;8.20;3.75;;;;;;;;;;6120164;23;20286;-90
2021/08/17 21:59:03;;;;;;;7.43;4.18;;;;;;;;;;6124163;23;20297;-91
2021/08/17 22:05:40;;;;;;;9.73;4.78;;;;;;;;;;6122759;23;20153;-91
2021/08/17 22:08:45;;;;;;;11.07;5.10;;;;;;;;;;6138773;23;20169;-89
2021/08/17 22:11:52;;;;;;;12.82;4.75;;;;;;;;;;6122965;23;20224;-90
2021/08/17 22:14:58;;;;;;;13.93;5.07;;;;;;;;;;6121496;23;20176;-89
2021/08/17 22:18:05;;;;;;;9.57;4.82;;;;;;;;;;6120877;23;20173;-89
2021/08/17 22:21:10;;;;;;;8.52;4.22;;;;;;;;;;6121816;23;20173;-90
2021/08/17 22:24:17;;;;;;;8.35;4.50;;;;;;;;;;6121544;23;20510;-90
2021/08/17 22:27:27;;;;;;;9.05;4.63;;;;;;;;;;6122343;23;20176;-91
2021/08/17 22:30:33;;;;;;;8.95;4.65;;;;;;;;;;6121466;23;20169;-89
2021/08/17 22:33:38;;;;;;;7.68;4.10;;;;;;;;;;6120221;23;20268;-89
2021/08/17 22:36:44;;;;;;;7.53;4.15;;;;;;;;;;6120933;23;20162;-91
2021/08/17 22:39:49;;;;;;;11.43;4.70;;;;;;;;;;6122744;23;20193;-90
2021/08/17 22:46:57;;;;;;;8.68;4.55;;;;;;;;;;6141052;23;20198;-89
2021/08/17 22:50:05;;;;;;;10.70;4.95;;;;;;;;;;6121758;23;20168;-91
2021/08/17 22:53:12;;;;;;;12.48;5.90;;;;;;;;;;6121011;23;20247;-90
2021/08/17 22:56:18;;;;;;;11.38;5.18;;;;;;;;;;6120587;23;20240;-90
2021/08/17 22:59:24;;;;;;;11.38;5.60;;;;;;;;;;6120306;23;20186;-90
2021/08/17 23:02:31;;;;;;;10.00;4.97;;;;;;;;;;6122263;23;20161;-90
2021/08/17 23:05:44;;;;;;;11.75;4.93;;;;;;;;;;6123728;23;20173;-90
2021/08/17 23:08:49;;;;;;;9.35;4.63;;;;;;;;;;6123300;23;20165;-89
2021/08/17 23:11:55;;;;;;;13.70;5.13;;;;;;;;;;6123465;23;20169;-89
2021/08/17 23:15:00;;;;;;;9.43;4.82;;;;;;;;;;6123526;23;20235;-90
2021/08/17 23:18:07;;;;;;;10.55;4.88;;;;;;;;;;6123120;23;20189;-90
2021/08/17 23:21:12;;;;;;;10.40;5.10;;;;;;;;;;6120828;23;20209;-90
2021/08/17 23:24:18;;;;;;;11.05;5.40;;;;;;;;;;6122952;23;20177;-90
2021/08/17 23:27:23;;;;;;;12.60;5.97;;;;;;;;;;6119062;23;20177;-90
2021/08/17 23:30:28;;;;;;;9.50;5.20;;;;;;;;;;6119099;23;20185;-90
2021/08/17 23:33:35;;;;;;;10.98;5.15;;;;;;;;;;6119547;23;20157;-89
2021/08/17 23:36:40;;;;;;;11.77;5.40;;;;;;;;;;6119672;23;20176;-90
2021/08/17 23:39:46;;;;;;;13.75;6.53;;;;;;;;;;6124422;23;20197;-90
2021/08/17 23:42:52;;;;;;;10.07;5.13;;;;;;;;;;6124570;23;20222;-90
2021/08/17 23:45:58;;;;;;;13.02;5.05;;;;;;;;;;6123409;23;20174;-90
2021/08/17 23:49:04;;;;;;;10.45;5.25;;;;;;;;;;6124784;23;20181;-90
2021/08/17 23:52:09;;;;;;;12.50;4.70;;;;;;;;;;6125447;23;20168;-90
2021/08/17 23:55:29;;;;;;;10.20;4.60;;;;;;;;;;6124630;23;20192;-90
2021/08/17 23:58:40;;;;;;;9.55;4.93;;;;;;;;;;6124636;23;20227;-90
